Time;durP1;ratioP1;P1;durP2;ratioP2;P2;SDS_P1;SDS_P2;PMS_P1;PMS_P2;Temp;Humidity;BMP_temperature;BMP_pressure;BME280_temperature;BME280_humidity;BME280_pressure;Samples;Min_cycle;Max_cycle;Signal;HPM_P1;HPM_P2
2022/08/25 00:01:45;;;;;;;8.40;5.50;;;22.40;99.90;;;;;;4933265;29;20094;-63
2022/08/25 00:04:12;;;;;;;8.13;5.65;;;22.30;99.90;;;;;;4934783;29;20055;-63
2022/08/25 00:06:40;;;;;;;10.27;5.68;;;22.30;99.90;;;;;;4934240;29;20047;-64
2022/08/25 00:09:07;;;;;;;8.75;5.47;;;22.20;99.90;;;;;;4934669;29;20091;-64
2022/08/25 00:11:34;;;;;;;7.15;5.50;;;22.20;99.90;;;;;;4934681;29;20051;-65
2022/08/25 00:14:04;;;;;;;8.23;5.15;;;22.20;99.90;;;;;;4934187;29;20047;-64
2022/08/25 00:16:31;;;;;;;7.45;4.90;;;22.20;99.90;;;;;;4934745;29;20477;-64
2022/08/25 00:19:00;;;;;;;7.20;5.20;;;22.20;99.90;;;;;;4933062;29;20048;-64
2022/08/25 00:21:26;;;;;;;6.68;5.10;;;22.20;99.90;;;;;;4934589;29;20047;-66
2022/08/25 00:23:52;;;;;;;6.88;5.32;;;22.10;99.90;;;;;;4933149;29;20059;-64
2022/08/25 00:26:18;;;;;;;9.73;4.85;;;22.10;99.90;;;;;;4933221;29;20478;-64
2022/08/25 00:28:44;;;;;;;9.30;5.15;;;22.10;99.90;;;;;;4934141;29;20138;-64
2022/08/25 00:31:16;;;;;;;8.13;4.80;;;22.10;99.90;;;;;;4934429;29;20055;-64
2022/08/25 00:33:43;;;;;;;10.07;5.00;;;22.10;99.90;;;;;;4934061;29;20430;-64
2022/08/25 00:36:13;;;;;;;7.90;5.10;;;22.10;99.90;;;;;;4933292;29;20083;-64
2022/08/25 00:38:43;;;;;;;8.57;4.45;;;22.10;99.90;;;;;;4933378;29;20115;-66
2022/08/25 00:41:11;;;;;;;8.75;4.90;;;22.10;99.90;;;;;;4932980;29;20060;-64
2022/08/25 00:43:40;;;;;;;8.82;4.57;;;22.00;99.90;;;;;;4933315;29;20054;-64
2022/08/25 00:46:14;;;;;;;7.72;4.90;;;22.00;99.90;;;;;;4934258;29;20051;-64
2022/08/25 00:48:42;;;;;;;9.20;4.80;;;22.00;99.90;;;;;;4934316;29;20055;-65
2022/08/25 00:51:10;;;;;;;9.73;4.97;;;22.00;99.90;;;;;;4934326;29;20048;-63
2022/08/25 00:53:37;;;;;;;9.43;4.55;;;22.00;99.90;;;;;;4934277;29;20056;-63
2022/08/25 00:56:03;;;;;;;10.23;4.30;;;22.00;99.90;;;;;;4933755;29;20210;-63
2022/08/25 00:58:32;;;;;;;7.85;4.85;;;21.90;99.90;;;;;;4935085;29;20637;-63
2022/08/25 01:00:58;;;;;;;8.80;4.40;;;21.90;99.90;;;;;;4937380;29;20059;-63
2022/08/25 01:03:26;;;;;;;11.23;4.78;;;21.90;99.90;;;;;;4936273;29;20539;-63
2022/08/25 01:05:54;;;;;;;6.85;4.20;;;21.90;99.90;;;;;;4937233;29;20066;-65
2022/08/25 01:08:26;;;;;;;9.07;4.55;;;21.90;99.90;;;;;;4936651;29;20077;-64
2022/08/25 01:10:52;;;;;;;8.30;4.30;;;21.90;99.90;;;;;;4937269;29;20134;-63
2022/08/25 01:13:24;;;;;;;9.50;4.22;;;21.90;99.90;;;;;;4920806;29;20047;-63
2022/08/25 01:15:54;;;;;;;10.27;4.50;;;21.90;99.90;;;;;;4937175;29;20119;-63
2022/08/25 01:18:20;;;;;;;8.70;3.80;;;21.90;99.90;;;;;;4936251;29;20047;-63
2022/08/25 01:20:58;;;;;;;8.77;4.10;;;21.90;99.90;;;;;;4937129;29;20092;-66
2022/08/25 01:23:25;;;;;;;7.80;3.72;;;21.90;99.90;;;;;;4936412;29;20055;-63
2022/08/25 01:26:09;;;;;;;6.88;3.92;;;21.80;99.90;;;;;;4937035;29;20090;-63
2022/08/25 01:28:35;;;;;;;10.25;4.18;;;21.80;99.90;;;;;;4937440;29;20534;-64
2022/08/25 01:31:01;;;;;;;13.55;4.15;;;21.80;99.90;;;;;;4936600;29;20438;-63
2022/08/25 01:33:27;;;;;;;7.88;3.80;;;21.80;99.90;;;;;;4936270;29;20051;-64
2022/08/25 01:35:53;;;;;;;7.85;3.67;;;21.80;99.90;;;;;;4935782;29;20528;-66
2022/08/25 01:38:19;;;;;;;7.30;4.00;;;21.70;99.90;;;;;;4937087;29;20058;-64
2022/08/25 01:40:46;;;;;;;8.63;3.72;;;21.70;99.80;;;;;;4937111;29;20067;-65
2022/08/25 01:43:30;;;;;;;6.78;3.55;;;21.80;99.80;;;;;;4935539;29;20111;-63
2022/08/25 01:45:56;;;;;;;9.20;3.83;;;21.70;99.70;;;;;;4936664;29;20048;-63
2022/08/25 01:48:22;;;;;;;6.82;3.65;;;21.60;99.60;;;;;;4936831;29;20058;-63
2022/08/25 01:50:48;;;;;;;9.63;3.97;;;21.60;99.70;;;;;;4936813;29;20134;-67
2022/08/25 01:53:29;;;;;;;5.97;3.72;;;21.60;99.60;;;;;;4936476;29;20121;-63
2022/08/25 01:56:00;;;;;;;9.02;3.80;;;21.60;99.50;;;;;;4919456;29;20094;-64
2022/08/25 01:58:35;;;;;;;6.65;3.88;;;21.60;99.50;;;;;;4936151;29;20118;-64
2022/08/25 02:01:06;;;;;;;7.93;3.80;;;21.60;99.40;;;;;;4936321;29;20070;-64
2022/08/25 02:03:36;;;;;;;11.07;3.72;;;21.50;99.40;;;;;;4936632;29;20135;-65
2022/08/25 02:06:03;;;;;;;8.20;4.07;;;21.50;99.40;;;;;;4919390;29;20087;-63
2022/08/25 02:08:28;;;;;;;8.73;4.20;;;21.50;99.40;;;;;;4936582;29;20110;-66
2022/08/25 02:10:54;;;;;;;5.65;3.65;;;21.40;99.40;;;;;;4934434;29;20051;-64
2022/08/25 02:13:20;;;;;;;7.93;3.95;;;21.40;99.40;;;;;;4935432;29;20122;-64
2022/08/25 02:15:51;;;;;;;9.00;4.10;;;21.40;99.40;;;;;;4936466;29;20043;-64
2022/08/25 02:18:17;;;;;;;10.30;4.18;;;21.30;99.30;;;;;;4935947;29;20087;-63
2022/08/25 02:20:43;;;;;;;8.77;4.00;;;21.30;99.40;;;;;;4936349;29;20051;-63
2022/08/25 02:23:09;;;;;;;6.55;3.63;;;21.30;99.30;;;;;;4934710;29;20058;-63
2022/08/25 02:25:37;;;;;;;7.88;3.95;;;21.20;99.30;;;;;;4951233;29;20048;-64
2022/08/25 02:28:04;;;;;;;5.53;3.97;;;21.20;99.30;;;;;;4934800;29;20050;-64
2022/08/25 02:30:30;;;;;;;13.95;3.97;;;21.20;99.30;;;;;;4936181;29;20127;-64
2022/08/25 02:32:56;;;;;;;9.77;4.30;;;21.20;99.30;;;;;;4934792;29;20059;-64
2022/08/25 02:35:22;;;;;;;9.50;4.25;;;21.20;99.30;;;;;;4936124;29;20052;-62
2022/08/25 02:37:51;;;;;;;7.00;3.90;;;21.10;99.30;;;;;;4935940;29;20043;-63
2022/08/25 02:40:17;;;;;;;5.38;3.83;;;21.10;99.40;;;;;;4934726;29;20359;-64
2022/08/25 02:42:43;;;;;;;8.68;4.47;;;21.10;99.40;;;;;;4935941;29;20050;-63
2022/08/25 02:45:09;;;;;;;8.15;4.53;;;21.00;99.30;;;;;;4934516;29;20046;-63
2022/08/25 02:47:36;;;;;;;6.65;3.88;;;21.10;99.40;;;;;;4935861;29;20107;-64
2022/08/25 02:50:03;;;;;;;8.70;3.95;;;21.00;99.40;;;;;;4935423;29;20421;-63
2022/08/25 02:52:29;;;;;;;7.63;3.70;;;21.00;99.40;;;;;;4935847;29;20051;-63
2022/08/25 02:54:55;;;;;;;9.80;3.80;;;21.00;99.40;;;;;;4935478;29;20069;-64
2022/08/25 02:57:20;;;;;;;6.90;4.28;;;20.90;99.30;;;;;;4935700;29;20040;-63
2022/08/25 02:59:47;;;;;;;5.97;3.72;;;20.90;99.30;;;;;;4918550;29;20142;-62
2022/08/25 03:02:15;;;;;;;6.38;4.00;;;20.90;99.30;;;;;;4934279;29;20051;-63
2022/08/25 03:04:41;;;;;;;6.82;4.10;;;20.80;99.30;;;;;;4935510;29;20058;-63
2022/08/25 03:07:09;;;;;;;6.00;4.20;;;20.80;99.40;;;;;;4935235;29;20063;-63
2022/08/25 03:09:35;;;;;;;8.05;3.83;;;20.80;99.40;;;;;;4935457;29;20046;-62
2022/08/25 03:12:01;;;;;;;6.50;4.18;;;20.80;99.40;;;;;;4935081;29;20056;-63
2022/08/25 03:14:26;;;;;;;6.03;4.10;;;20.80;99.40;;;;;;4934420;29;20135;-63
2022/08/25 03:16:52;;;;;;;10.13;4.00;;;20.70;99.50;;;;;;4934167;29;20046;-64
2022/08/25 03:19:18;;;;;;;5.85;3.88;;;20.70;99.50;;;;;;4918071;29;20366;-63
2022/08/25 03:21:47;;;;;;;8.48;4.13;;;20.70;99.60;;;;;;4934782;29;20044;-64
2022/08/25 03:24:13;;;;;;;9.23;4.18;;;20.60;99.60;;;;;;4934849;29;20076;-64
2022/08/25 03:26:53;;;;;;;8.80;4.32;;;20.60;99.60;;;;;;4933909;29;20044;-64
2022/08/25 03:29:21;;;;;;;6.38;4.05;;;20.60;99.60;;;;;;4933817;29;20143;-63
2022/08/25 03:31:47;;;;;;;7.57;3.63;;;20.60;99.70;;;;;;4934095;29;20056;-63
2022/08/25 03:34:15;;;;;;;11.70;4.15;;;20.50;99.70;;;;;;4933645;29;20059;-63
2022/08/25 03:36:42;;;;;;;8.73;4.38;;;20.50;99.70;;;;;;4933895;29;20055;-64
2022/08/25 03:39:08;;;;;;;8.88;4.30;;;20.50;99.80;;;;;;4933582;29;20091;-63
2022/08/25 03:41:34;;;;;;;5.55;3.53;;;20.40;99.80;;;;;;4934697;29;20497;-65
2022/08/25 03:44:03;;;;;;;9.63;3.97;;;20.40;99.80;;;;;;4935010;29;20047;-64
2022/08/25 03:46:31;;;;;;;5.65;3.78;;;20.40;99.90;;;;;;4933878;29;20105;-63
2022/08/25 03:49:00;;;;;;;7.82;4.15;;;20.40;99.90;;;;;;4934909;29;20398;-63
2022/08/25 03:51:32;;;;;;;10.43;4.20;;;20.30;99.90;;;;;;4933499;29;20060;-62
2022/08/25 03:53:58;;;;;;;8.23;4.07;;;20.30;99.90;;;;;;4933628;29;20052;-63
2022/08/25 03:56:26;;;;;;;5.05;3.95;;;20.30;99.90;;;;;;4932920;29;20187;-63
2022/08/25 03:58:53;;;;;;;7.55;4.25;;;20.20;99.90;;;;;;4933365;29;20071;-63
2022/08/25 04:01:19;;;;;;;9.57;4.20;;;20.20;99.90;;;;;;4948984;29;20485;-63
2022/08/25 04:03:45;;;;;;;8.77;4.13;;;20.20;99.90;;;;;;4933376;29;20051;-63
2022/08/25 04:06:12;;;;;;;6.93;3.88;;;20.20;99.90;;;;;;4932962;29;20047;-63
2022/08/25 04:08:38;;;;;;;6.18;3.85;;;20.20;99.90;;;;;;4933537;29;20048;-63
2022/08/25 04:11:10;;;;;;;8.05;4.47;;;20.20;99.90;;;;;;4933340;29;20043;-66
2022/08/25 04:13:36;;;;;;;7.90;4.60;;;20.10;99.90;;;;;;4917638;29;20430;-63
2022/08/25 04:16:09;;;;;;;9.27;4.32;;;20.10;99.90;;;;;;4934513;29;20044;-63
2022/08/25 04:18:34;;;;;;;8.70;4.40;;;20.10;99.90;;;;;;4933320;29;20516;-64
2022/08/25 04:21:02;;;;;;;8.48;4.70;;;20.10;99.90;;;;;;4934422;29;20051;-63
2022/08/25 04:23:28;;;;;;;6.85;4.70;;;20.10;99.90;;;;;;4933025;29;20111;-65
2022/08/25 04:25:53;;;;;;;6.93;4.38;;;20.00;99.90;;;;;;4949152;29;20040;-63
2022/08/25 04:28:19;;;;;;;7.05;4.22;;;20.10;99.90;;;;;;4932778;29;20048;-63
2022/08/25 04:30:45;;;;;;;6.20;3.60;;;20.00;99.90;;;;;;4934521;29;20044;-63
2022/08/25 04:33:11;;;;;;;9.82;4.47;;;20.00;99.90;;;;;;4934329;29;20063;-63
2022/08/25 04:35:37;;;;;;;8.63;4.32;;;20.00;99.90;;;;;;4936837;29;20490;-64
2022/08/25 04:38:03;;;;;;;8.13;4.25;;;20.00;99.90;;;;;;4937971;29;20090;-64
2022/08/25 04:40:29;;;;;;;6.88;4.38;;;19.90;99.90;;;;;;4936422;29;20241;-63
2022/08/25 04:42:55;;;;;;;6.70;4.43;;;19.90;99.90;;;;;;4937037;29;20052;-64
2022/08/25 04:45:20;;;;;;;8.43;4.65;;;19.90;99.90;;;;;;4937630;29;20048;-63
2022/08/25 04:47:46;;;;;;;8.88;4.80;;;19.90;99.90;;;;;;4936655;29;20122;-63
2022/08/25 04:50:12;;;;;;;8.05;4.60;;;19.80;99.90;;;;;;4936296;29;20048;-63
2022/08/25 04:52:38;;;;;;;11.57;4.68;;;19.80;99.90;;;;;;4937870;29;20052;-67
2022/08/25 04:55:03;;;;;;;7.15;4.75;;;19.80;99.90;;;;;;4937939;29;20409;-64
2022/08/25 04:57:29;;;;;;;8.55;4.55;;;19.80;99.90;;;;;;4937438;29;20190;-63
2022/08/25 04:59:55;;;;;;;7.68;4.80;;;19.80;99.90;;;;;;4937912;29;20062;-63
2022/08/25 05:02:24;;;;;;;8.50;4.90;;;19.70;99.90;;;;;;4936415;29;20073;-63
2022/08/25 05:04:50;;;;;;;9.05;5.20;;;19.80;99.90;;;;;;4937653;29;20051;-64
2022/08/25 05:07:16;;;;;;;7.20;4.80;;;19.70;99.90;;;;;;4937348;29;20150;-64
2022/08/25 05:09:42;;;;;;;9.27;5.00;;;19.80;99.90;;;;;;4937606;29;20087;-63
2022/08/25 05:12:08;;;;;;;11.90;5.00;;;19.80;99.90;;;;;;4952350;29;20047;-63
2022/08/25 05:14:34;;;;;;;8.88;4.80;;;19.70;99.90;;;;;;4937232;29;20044;-63
2022/08/25 05:17:00;;;;;;;7.30;4.80;;;19.80;99.90;;;;;;4937306;29;20044;-64
2022/08/25 05:19:26;;;;;;;9.25;5.22;;;19.70;99.90;;;;;;4937053;29;20054;-63
2022/08/25 05:21:52;;;;;;;10.55;5.10;;;19.80;99.90;;;;;;4936316;29;20048;-64
2022/08/25 05:24:19;;;;;;;9.40;5.22;;;19.80;99.90;;;;;;4935845;29;20063;-64
2022/08/25 05:26:44;;;;;;;10.38;5.60;;;19.80;99.90;;;;;;4936967;29;20568;-63
2022/08/25 05:29:10;;;;;;;9.23;5.38;;;19.90;99.90;;;;;;4937347;29;20142;-63
2022/08/25 05:31:36;;;;;;;8.88;5.40;;;19.90;99.90;;;;;;4936899;29;20040;-63
2022/08/25 05:34:06;;;;;;;9.70;4.82;;;20.00;99.90;;;;;;4937102;29;20142;-64
2022/08/25 05:36:33;;;;;;;8.38;5.45;;;20.10;99.90;;;;;;4936613;29;20051;-63
2022/08/25 05:38:59;;;;;;;11.00;5.25;;;20.20;99.90;;;;;;4936760;29;20615;-63
2022/08/25 05:41:29;;;;;;;9.02;5.13;;;20.40;99.90;;;;;;4935737;29;20082;-65
2022/08/25 05:43:55;;;;;;;9.57;5.43;;;20.70;99.90;;;;;;4935458;29;20110;-64
2022/08/25 05:46:21;;;;;;;8.40;5.30;;;21.20;99.90;;;;;;4934657;29;20095;-63
2022/08/25 05:48:47;;;;;;;12.35;5.22;;;21.90;99.90;;;;;;4936987;29;20055;-64
2022/08/25 05:51:14;;;;;;;10.70;5.18;;;22.50;99.40;;;;;;4935855;29;20048;-63
2022/08/25 05:53:43;;;;;;;8.65;4.60;;;23.00;98.40;;;;;;4935510;29;20138;-64
2022/08/25 05:56:09;;;;;;;8.43;4.93;;;23.60;98.20;;;;;;4935490;29;20044;-63
2022/08/25 05:58:35;;;;;;;9.00;4.95;;;24.10;97.00;;;;;;4936074;29;20063;-64
2022/08/25 06:02:39;;;;;;;7.97;5.00;;;24.50;96.30;;;;;;4936801;29;20066;-63
2022/08/25 06:03:47;;;;;;;9.13;5.05;;;25.00;96.40;;;;;;4935498;29;20063;-64
2022/08/25 06:06:14;;;;;;;7.82;5.68;;;25.40;95.20;;;;;;4935322;29;20048;-64
2022/08/25 06:08:41;;;;;;;8.95;5.50;;;25.90;94.90;;;;;;4935154;29;20047;-64
2022/08/25 06:11:06;;;;;;;13.77;4.85;;;26.20;93.80;;;;;;4936781;29;20044;-64
2022/08/25 06:13:32;;;;;;;11.10;4.80;;;26.50;92.80;;;;;;4919319;29;20134;-64
2022/08/25 06:15:59;;;;;;;12.30;4.70;;;26.60;92.90;;;;;;4936496;29;20390;-63
2022/08/25 06:18:25;;;;;;;8.40;5.20;;;26.80;93.00;;;;;;4936035;29;20055;-65
2022/08/25 06:20:51;;;;;;;7.88;4.78;;;27.10;92.80;;;;;;4936538;29;20052;-64
2022/08/25 06:23:19;;;;;;;8.77;5.15;;;27.40;91.80;;;;;;4951146;29;20131;-64
2022/08/25 06:25:49;;;;;;;7.18;5.20;;;27.50;92.30;;;;;;4903997;29;20121;-64
2022/08/25 06:28:15;;;;;;;7.45;4.93;;;27.60;91.70;;;;;;4936316;29;20050;-63
2022/08/25 06:30:41;;;;;;;8.90;4.63;;;27.50;92.30;;;;;;4934289;29;20134;-64
2022/08/25 06:33:07;;;;;;;6.90;4.72;;;27.50;92.10;;;;;;4919254;29;20048;-64
2022/08/25 06:35:33;;;;;;;11.43;5.13;;;27.50;91.70;;;;;;4934622;29;20437;-64
2022/08/25 06:37:59;;;;;;;7.50;5.00;;;27.60;91.80;;;;;;4934597;29;20082;-63
2022/08/25 06:40:25;;;;;;;9.50;5.35;;;27.50;91.90;;;;;;4935523;29;20039;-64
2022/08/25 06:42:50;;;;;;;8.25;5.05;;;27.50;92.20;;;;;;4950805;29;20048;-64
2022/08/25 06:45:17;;;;;;;8.50;4.70;;;27.60;92.20;;;;;;4936013;29;20048;-64
2022/08/25 06:47:43;;;;;;;8.13;4.80;;;28.00;91.80;;;;;;4935680;29;20048;-64
2022/08/25 06:50:09;;;;;;;11.48;5.03;;;28.40;91.70;;;;;;4934396;29;20047;-64
2022/08/25 06:52:34;;;;;;;9.55;5.55;;;28.30;90.80;;;;;;4934556;29;20052;-64
2022/08/25 06:55:00;;;;;;;11.50;4.85;;;28.30;91.40;;;;;;4934889;29;20043;-64
2022/08/25 06:57:26;;;;;;;10.00;4.70;;;28.10;91.20;;;;;;4935066;29;20062;-64
2022/08/25 06:59:52;;;;;;;7.95;5.25;;;27.60;91.30;;;;;;4934484;29;20064;-64
2022/08/25 07:02:19;;;;;;;9.25;4.97;;;27.00;91.70;;;;;;4935747;29;20051;-65
2022/08/25 07:04:45;;;;;;;9.88;5.15;;;26.60;92.00;;;;;;4935272;29;20572;-64
2022/08/25 07:07:11;;;;;;;11.63;4.80;;;26.10;92.40;;;;;;4934502;29;20051;-64
2022/08/25 07:09:37;;;;;;;8.52;4.95;;;25.70;92.80;;;;;;4934132;29;20052;-63
2022/08/25 07:12:04;;;;;;;6.68;4.78;;;25.60;93.40;;;;;;4934427;29;20054;-63
2022/08/25 07:14:30;;;;;;;10.77;5.00;;;25.40;93.40;;;;;;4935196;29;20066;-62
2022/08/25 07:16:56;;;;;;;8.20;5.35;;;25.40;93.50;;;;;;4935317;29;20047;-65
2022/08/25 07:19:22;;;;;;;11.30;4.68;;;25.40;93.50;;;;;;4935398;29;20059;-63
2022/08/25 07:21:51;;;;;;;9.20;4.85;;;25.40;93.40;;;;;;4934982;29;20051;-63
2022/08/25 07:24:16;;;;;;;7.97;4.82;;;25.50;93.20;;;;;;4934924;29;20489;-63
2022/08/25 07:26:42;;;;;;;11.40;5.30;;;25.40;93.30;;;;;;4934781;29;20090;-64
2022/08/25 07:29:26;;;;;;;8.18;5.00;;;25.30;93.50;;;;;;4935292;29;20063;-64
2022/08/25 07:31:53;;;;;;;9.98;5.28;;;25.30;93.30;;;;;;4918073;29;20059;-64
2022/08/25 07:37:03;;;;;;;;;;;25.50;93.40;;;;;;4935491;29;20606;-63
2022/08/25 07:39:30;;;;;;;8.55;4.88;;;25.70;93.20;;;;;;4918047;29;19969;-68
2022/08/25 07:41:56;;;;;;;8.95;5.22;;;25.90;93.40;;;;;;4933975;29;20095;-63
2022/08/25 07:44:23;;;;;;;8.25;5.10;;;26.40;92.90;;;;;;4933823;29;20087;-62
2022/08/25 07:46:50;;;;;;;11.43;5.25;;;27.20;92.60;;;;;;4917940;29;20121;-63
2022/08/25 07:49:16;;;;;;;9.52;4.95;;;28.00;92.30;;;;;;4934570;29;20490;-63
2022/08/25 07:51:42;;;;;;;7.38;4.50;;;28.80;91.20;;;;;;4933243;29;20175;-63
2022/08/25 07:54:07;;;;;;;7.32;4.53;;;29.20;91.40;;;;;;4934763;29;20130;-64
2022/08/25 07:56:33;;;;;;;9.70;4.25;;;29.80;90.80;;;;;;4933196;29;20051;-63
2022/08/25 07:58:59;;;;;;;8.02;4.68;;;30.30;90.30;;;;;;4933306;29;20087;-64
2022/08/25 08:01:25;;;;;;;9.23;4.32;;;30.70;90.10;;;;;;4934827;29;20168;-63
2022/08/25 08:03:51;;;;;;;10.82;4.50;;;31.20;88.50;;;;;;4933195;29;20274;-65
2022/08/25 08:06:21;;;;;;;10.90;4.50;;;31.40;87.60;;;;;;4934656;29;20043;-63
2022/08/25 08:08:48;;;;;;;8.50;4.55;;;32.00;86.70;;;;;;4933796;29;20055;-63
2022/08/25 08:11:21;;;;;;;7.32;4.43;;;32.60;86.70;;;;;;4934613;29;20051;-65
2022/08/25 08:13:47;;;;;;;11.30;4.65;;;33.10;86.00;;;;;;4917501;29;20056;-65
2022/08/25 08:16:15;;;;;;;10.70;4.40;;;33.40;83.90;;;;;;4933296;29;20052;-63
2022/08/25 08:18:42;;;;;;;8.65;4.18;;;33.90;83.50;;;;;;4934195;29;20048;-64
2022/08/25 08:21:14;;;;;;;9.52;3.60;;;34.20;83.10;;;;;;4933380;29;20048;-64
2022/08/25 08:23:39;;;;;;;8.02;3.80;;;34.40;83.90;;;;;;4933034;29;20139;-64
2022/08/25 08:26:05;;;;;;;8.50;3.97;;;34.50;83.20;;;;;;4934546;29;20588;-63
2022/08/25 08:28:31;;;;;;;6.35;3.47;;;35.00;82.40;;;;;;4933516;29;20051;-63
2022/08/25 08:30:57;;;;;;;8.02;3.90;;;35.20;80.50;;;;;;4933220;29;20054;-63
2022/08/25 08:33:23;;;;;;;6.60;3.70;;;35.30;79.70;;;;;;4934469;29;20050;-64
2022/08/25 08:35:57;;;;;;;9.00;3.40;;;35.30;79.60;;;;;;4934086;29;20046;-65
2022/08/25 08:38:23;;;;;;;9.48;3.85;;;35.60;80.50;;;;;;4949319;29;20379;-64
2022/08/25 08:44:09;;;;;;;7.57;3.80;;;36.00;79.20;;;;;;4934464;29;20064;-64
2022/08/25 08:46:45;;;;;;;6.57;3.40;;;36.00;78.60;;;;;;4934423;29;20052;-68
2022/08/25 08:49:31;;;;;;;6.55;3.60;;;35.90;77.90;;;;;;4934586;29;20051;-64
2022/08/25 08:52:00;;;;;;;9.75;3.65;;;35.60;78.80;;;;;;4932934;29;20124;-65
2022/08/25 08:54:31;;;;;;;11.27;3.53;;;35.90;78.90;;;;;;4948974;29;20473;-64
2022/08/25 08:57:07;;;;;;;6.93;3.30;;;36.30;79.30;;;;;;4932847;29;20814;-64
2022/08/25 08:59:45;;;;;;;5.53;3.00;;;36.60;78.10;;;;;;4934035;29;20052;-64
2022/08/25 09:02:34;;;;;;;7.93;3.60;;;36.60;78.70;;;;;;4932765;29;20473;-64
2022/08/25 09:05:05;;;;;;;7.00;3.10;;;36.70;77.90;;;;;;4932823;29;20110;-64
2022/08/25 09:07:38;;;;;;;7.95;3.53;;;36.90;77.60;;;;;;4934108;29;20070;-64
2022/08/25 09:10:04;;;;;;;10.48;3.20;;;36.70;76.50;;;;;;4933940;29;20051;-64
2022/08/25 09:13:06;;;;;;;6.53;3.00;;;36.10;76.80;;;;;;4932925;29;20048;-64
2022/08/25 09:18:53;;;;;;;7.70;3.28;;;36.20;77.10;;;;;;4934243;29;20056;-65
2022/08/25 09:21:30;;;;;;;8.15;3.17;;;36.30;77.80;;;;;;4936149;29;20104;-63
2022/08/25 09:23:55;;;;;;;8.35;3.40;;;36.40;76.80;;;;;;4937237;29;20051;-63
2022/08/25 09:26:28;;;;;;;6.70;3.30;;;36.30;76.90;;;;;;4937372;29;20056;-64
2022/08/25 09:29:19;;;;;;;6.53;3.10;;;36.40;77.30;;;;;;4936993;29;20054;-63
2022/08/25 09:31:47;;;;;;;6.95;3.00;;;36.20;76.60;;;;;;4936876;29;20047;-65
2022/08/25 09:34:18;;;;;;;7.47;3.08;;;36.10;77.10;;;;;;4936099;29;20055;-65
2022/08/25 09:36:47;;;;;;;7.75;3.00;;;35.90;76.80;;;;;;4936720;29;20050;-65
2022/08/25 09:39:13;;;;;;;7.18;3.20;;;35.10;76.80;;;;;;4935860;29;20118;-65
2022/08/25 09:41:45;;;;;;;11.02;3.28;;;34.40;77.20;;;;;;4937190;29;20122;-64
2022/08/25 09:44:32;;;;;;;8.63;3.50;;;34.00;78.20;;;;;;4936152;29;20047;-64
2022/08/25 09:47:03;;;;;;;9.65;3.30;;;33.70;77.70;;;;;;4935766;29;20058;-64
2022/08/25 09:49:44;;;;;;;11.38;3.28;;;33.30;77.80;;;;;;4935994;29;20048;-65
2022/08/25 09:52:22;;;;;;;10.77;3.05;;;33.00;78.10;;;;;;4935729;29;20047;-65
2022/08/25 09:54:49;;;;;;;11.88;3.50;;;33.00;78.50;;;;;;4951246;29;20087;-65
2022/08/25 09:57:32;;;;;;;8.70;3.05;;;32.70;78.00;;;;;;4936872;29;20044;-64
2022/08/25 10:00:32;;;;;;;5.55;2.60;;;32.30;78.00;;;;;;4934912;29;20450;-64
2022/08/25 10:03:19;;;;;;;9.02;3.00;;;32.20;78.20;;;;;;4916566;29;20142;-64
2022/08/25 10:05:54;;;;;;;6.55;3.03;;;32.00;77.80;;;;;;4935625;29;20134;-67
2022/08/25 10:08:35;;;;;;;8.60;3.03;;;31.80;78.20;;;;;;4951495;29;20043;-63
2022/08/25 10:11:04;;;;;;;4.93;2.75;;;31.80;78.70;;;;;;4936402;29;20069;-65
2022/08/25 10:13:45;;;;;;;5.65;2.55;;;31.70;78.40;;;;;;4936576;29;20347;-64
2022/08/25 10:16:21;;;;;;;5.60;2.53;;;31.60;78.40;;;;;;4935454;29;20059;-64
2022/08/25 10:19:02;;;;;;;9.13;2.53;;;31.70;78.60;;;;;;4936341;29;20048;-67
2022/08/25 10:21:27;;;;;;;7.28;2.70;;;31.70;78.10;;;;;;4936584;29;20051;-64
2022/08/25 10:23:55;;;;;;;6.00;2.70;;;31.60;77.70;;;;;;4936009;29;20453;-64
2022/08/25 10:26:31;;;;;;;6.22;2.97;;;31.60;77.90;;;;;;4935235;29;20083;-64
2022/08/25 10:29:10;;;;;;;5.03;2.60;;;31.40;78.20;;;;;;4936046;29;20150;-64
2022/08/25 10:32:21;;;;;;;5.78;2.85;;;31.40;78.10;;;;;;4936045;29;20052;-63
2022/08/25 10:34:55;;;;;;;9.40;3.17;;;31.30;78.50;;;;;;4935482;29;20063;-63
2022/08/25 10:37:51;;;;;;;4.88;2.72;;;31.30;77.80;;;;;;4936045;29;20044;-63
2022/08/25 10:40:27;;;;;;;6.63;3.08;;;31.30;78.20;;;;;;4936075;29;20108;-64
2022/08/25 10:43:10;;;;;;;5.05;2.75;;;31.20;78.60;;;;;;4935793;29;20442;-64
2022/08/25 10:45:46;;;;;;;4.03;2.47;;;31.30;78.50;;;;;;4935928;29;20055;-64
2022/08/25 10:48:41;;;;;;;4.30;2.60;;;31.40;78.30;;;;;;4935593;29;20059;-63
2022/08/25 10:51:19;;;;;;;4.85;2.58;;;31.60;78.60;;;;;;4935426;29;20163;-63
2022/08/25 10:54:35;;;;;;;5.15;3.03;;;31.80;77.60;;;;;;4934699;29;20055;-66
2022/08/25 10:57:06;;;;;;;6.30;2.92;;;31.50;77.90;;;;;;4932677;29;20513;-63
2022/08/25 10:59:51;;;;;;;7.72;3.50;;;31.40;78.20;;;;;;4932955;29;20095;-64
2022/08/25 11:02:37;;;;;;;7.20;3.03;;;31.30;78.80;;;;;;4934236;29;20505;-64
2022/08/25 11:05:10;;;;;;;7.43;3.03;;;31.20;78.30;;;;;;4930135;29;20051;-64
2022/08/25 11:07:43;;;;;;;4.30;2.45;;;31.30;77.10;;;;;;4934611;29;20086;-63
2022/08/25 11:10:21;;;;;;;6.68;3.03;;;31.40;77.50;;;;;;4935069;29;20051;-64
2022/08/25 11:12:59;;;;;;;7.75;3.28;;;31.50;77.30;;;;;;4935468;29;20051;-63
2022/08/25 11:15:32;;;;;;;6.45;3.15;;;31.50;78.20;;;;;;4935407;29;20059;-63
2022/08/25 11:18:08;;;;;;;7.80;2.88;;;31.60;77.70;;;;;;4933713;29;20055;-64
2022/08/25 11:20:47;;;;;;;6.00;2.85;;;31.50;78.00;;;;;;4934450;29;20051;-64
2022/08/25 11:23:20;;;;;;;5.78;2.75;;;31.60;77.40;;;;;;4934840;29;20051;-64
2022/08/25 11:25:51;;;;;;;6.43;2.83;;;31.60;77.30;;;;;;4935391;29;20083;-64
2022/08/25 11:28:30;;;;;;;5.75;3.08;;;31.60;77.50;;;;;;4934855;29;20070;-64
2022/08/25 11:30:59;;;;;;;5.30;3.20;;;31.70;78.30;;;;;;4933832;29;20077;-67
2022/08/25 11:33:28;;;;;;;6.30;3.10;;;31.80;78.90;;;;;;4935197;29;20060;-64
2022/08/25 11:36:10;;;;;;;6.55;2.95;;;31.80;78.60;;;;;;4935140;29;20110;-66
2022/08/25 11:38:50;;;;;;;7.70;3.15;;;31.80;79.00;;;;;;4935157;29;20062;-64
2022/08/25 11:41:22;;;;;;;7.85;3.20;;;31.70;78.60;;;;;;4949569;29;20127;-64
2022/08/25 11:44:33;;;;;;;6.13;3.03;;;31.60;78.50;;;;;;4949005;28;20482;-64
2022/08/25 11:46:59;;;;;;;6.68;3.35;;;31.60;78.90;;;;;;4933678;29;20521;-63
2022/08/25 11:49:34;;;;;;;9.65;3.00;;;31.50;79.40;;;;;;4933907;29;20078;-63
2022/08/25 11:51:59;;;;;;;5.50;3.03;;;31.60;79.30;;;;;;4949071;29;20110;-63
2022/08/25 11:54:44;;;;;;;6.45;3.15;;;31.60;77.90;;;;;;4933600;29;20048;-64
2022/08/25 11:57:30;;;;;;;5.63;3.00;;;31.60;78.00;;;;;;4934338;29;20054;-64
2022/08/25 12:00:12;;;;;;;6.07;2.92;;;31.70;77.60;;;;;;4934911;29;20056;-64
2022/08/25 12:02:47;;;;;;;5.47;3.25;;;31.60;77.90;;;;;;4933926;29;20066;-64
2022/08/25 12:05:16;;;;;;;5.78;2.80;;;31.50;77.90;;;;;;4917914;29;20043;-65
2022/08/25 12:11:02;;;;;;;4.80;2.30;;;31.50;77.30;;;;;;4934857;29;20053;-64
2022/08/25 12:13:43;;;;;;;8.70;2.78;;;31.50;76.70;;;;;;4934797;29;20087;-64
2022/08/25 12:16:34;;;;;;;4.55;3.00;;;31.50;76.60;;;;;;4934253;29;20377;-63
2022/08/25 12:19:22;;;;;;;7.85;3.00;;;31.50;76.50;;;;;;4930480;29;20059;-66
2022/08/25 12:21:48;;;;;;;5.18;2.78;;;31.50;76.40;;;;;;4933675;29;20055;-63
2022/08/25 12:24:17;;;;;;;6.93;2.60;;;31.50;76.90;;;;;;4934102;29;20056;-63
2022/08/25 12:26:55;;;;;;;5.53;2.83;;;31.50;76.80;;;;;;4934495;29;20083;-63
2022/08/25 12:29:23;;;;;;;5.90;2.65;;;31.50;76.40;;;;;;4934266;29;20175;-64
2022/08/25 12:32:17;;;;;;;6.53;3.13;;;31.50;76.90;;;;;;4934418;29;20051;-63
2022/08/25 12:34:46;;;;;;;3.88;2.15;;;31.60;76.00;;;;;;4934497;29;20048;-64
2022/08/25 12:37:20;;;;;;;8.20;3.30;;;31.60;75.70;;;;;;4933943;29;20142;-64
2022/08/25 12:39:48;;;;;;;5.53;2.78;;;31.60;76.10;;;;;;4934432;29;20043;-64
2022/08/25 12:42:28;;;;;;;6.15;2.80;;;31.50;76.30;;;;;;4948752;29;20070;-64
2022/08/25 12:45:57;;;;;;;5.22;2.85;;;31.50;76.60;;;;;;4934433;29;20048;-63
2022/08/25 12:48:25;;;;;;;4.40;2.90;;;31.60;75.70;;;;;;4932556;29;20726;-63
2022/08/25 12:51:18;;;;;;;6.75;3.10;;;31.60;75.70;;;;;;4934258;29;20044;-63
2022/08/25 12:54:11;;;;;;;5.53;2.75;;;31.60;76.40;;;;;;4934309;29;20130;-62
2022/08/25 12:56:44;;;;;;;8.15;2.90;;;31.60;76.50;;;;;;4938024;29;20043;-63
2022/08/25 12:59:21;;;;;;;6.07;2.73;;;31.60;75.60;;;;;;4935885;29;20060;-63
2022/08/25 13:02:19;;;;;;;4.60;2.90;;;31.60;75.10;;;;;;4937959;29;20060;-63
2022/08/25 13:05:05;;;;;;;5.22;3.08;;;31.60;75.40;;;;;;4937834;29;20070;-63
2022/08/25 13:07:46;;;;;;;4.95;2.50;;;31.60;75.20;;;;;;4937813;29;20178;-62
2022/08/25 13:10:17;;;;;;;4.28;2.67;;;31.60;75.50;;;;;;4937313;29;20073;-63
2022/08/25 13:12:49;;;;;;;5.63;2.40;;;31.50;75.60;;;;;;4937741;29;20094;-63
2022/08/25 13:15:25;;;;;;;5.47;2.70;;;31.60;75.00;;;;;;4936845;29;20536;-63
2022/08/25 13:17:50;;;;;;;5.57;2.83;;;31.60;74.90;;;;;;4937257;29;20490;-64